Time;durP1;ratioP1;P1;durP2;ratioP2;P2;SDS_P1;SDS_P2;PMS_P1;PMS_P2;Temp;Humidity;BMP_temperature;BMP_pressure;BME280_temperature;BME280_humidity;BME280_pressure;Samples;Min_cycle;Max_cycle;Signal;HPM_P1;HPM_P2
2021/01/02 00:03:41;;;;;;;94.00;62.58;;;;;;;3.30;80.67;99897.50;3077804;77;21120;-68
2021/01/02 00:08:12;;;;;;;102.78;64.55;;;;;;;3.28;81.32;99898.89;3077613;77;21121;-67
2021/01/02 00:12:56;;;;;;;107.15;70.45;;;;;;;3.15;81.29;99899.23;3077134;77;21117;-67
2021/01/02 00:17:16;;;;;;;120.90;68.52;;;;;;;3.04;82.17;99901.13;3077790;77;21120;-67
2021/01/02 00:21:27;;;;;;;109.20;65.28;;;;;;;3.07;82.24;99905.38;3076902;77;21125;-67
2021/01/02 00:25:32;;;;;;;105.35;69.22;;;;;;;3.03;82.41;99907.81;3078006;77;21141;-67
2021/01/02 00:30:02;;;;;;;117.50;74.07;;;;;;;3.02;82.53;99910.06;3078139;77;21097;-68
2021/01/02 00:34:29;;;;;;;111.62;64.27;;;;;;;3.00;82.65;99909.68;3077477;77;21120;-67
2021/01/02 00:38:37;;;;;;;115.70;68.72;;;;;;;3.02;82.59;99919.25;3043978;76;21152;-67
2021/01/02 00:42:44;;;;;;;117.42;68.15;;;;;;;3.06;82.99;99914.20;3018743;78;21140;-67
2021/01/02 00:46:48;;;;;;;110.80;71.95;;;;;;;3.14;82.71;99919.41;3018513;78;21152;-67
2021/01/02 00:50:53;;;;;;;111.57;74.05;;;;;;;3.23;82.84;99919.80;3018683;78;21146;-67
2021/01/02 00:55:29;;;;;;;122.15;70.57;;;;;;;3.26;82.19;99923.11;3017772;78;21140;-67
2021/01/02 01:00:08;;;;;;;118.70;71.65;;;;;;;3.28;82.36;99923.87;3017734;78;21114;-67
2021/01/02 01:04:20;;;;;;;114.97;68.20;;;;;;;3.28;82.28;99926.50;3017557;78;21168;-67
2021/01/02 01:08:24;;;;;;;129.50;70.25;;;;;;;3.42;82.81;99935.38;3016960;78;21101;-67
2021/01/02 01:12:29;;;;;;;112.20;66.95;;;;;;;3.59;82.51;99934.88;3017970;78;21140;-67
2021/01/02 01:16:36;;;;;;;107.72;65.22;;;;;;;3.66;81.69;99941.46;3017973;78;21124;-67
2021/01/02 01:20:45;;;;;;;93.35;59.80;;;;;;;3.70;81.23;99946.91;3017348;78;21129;-67
2021/01/02 01:24:55;;;;;;;104.78;65.57;;;;;;;3.73;81.14;99940.64;3017607;78;21587;-67
2021/01/02 01:28:59;;;;;;;98.67;61.18;;;;;;;3.83;81.11;99949.21;3015469;78;21515;-67
2021/01/02 01:33:04;;;;;;;108.83;62.78;;;;;;;3.84;80.52;99952.22;3017686;78;21124;-67
2021/01/02 01:37:10;;;;;;;94.10;60.92;;;;;;;3.84;80.40;99957.48;3050224;76;21150;-68
2021/01/02 01:41:17;;;;;;;109.85;64.47;;;;;;;3.88;80.43;99959.47;3052669;77;22462;-68
2021/01/02 01:45:44;;;;;;;82.05;53.30;;;;;;;4.02;80.80;99953.83;3050099;78;21153;-68
2021/01/02 01:50:02;;;;;;;86.70;55.78;;;;;;;4.05;80.14;99957.14;3049900;77;21938;-67
2021/01/02 01:55:04;;;;;;;80.47;52.83;;;;;;;4.13;79.54;99954.91;3052643;77;21141;-67
2021/01/02 01:59:25;;;;;;;73.00;45.08;;;;;;;4.08;78.88;99951.69;3054151;77;21190;-67
2021/01/02 02:03:34;;;;;;;87.33;53.40;;;;;;;3.95;78.38;99969.17;3054279;77;21459;-67
2021/01/02 02:08:14;;;;;;;75.75;47.27;;;;;;;3.85;79.24;99963.13;3052147;77;21165;-67
2021/01/02 02:12:22;;;;;;;59.70;41.15;;;;;;;3.79;78.61;99959.55;3054312;77;21102;-67
2021/01/02 02:16:30;;;;;;;65.30;42.03;;;;;;;3.66;78.63;99961.19;3057279;77;21101;-67
2021/01/02 02:20:35;;;;;;;62.65;37.30;;;;;;;3.59;79.19;99961.18;3061002;77;21457;-67
2021/01/02 02:24:44;;;;;;;71.55;39.95;;;;;;;3.50;79.01;99961.24;3063182;77;21113;-67
2021/01/02 02:28:58;;;;;;;59.15;37.00;;;;;;;3.41;79.47;99960.81;3063151;77;21141;-67
2021/01/02 02:33:06;;;;;;;51.75;30.10;;;;;;;3.43;79.61;99960.74;3063278;77;21332;-67
2021/01/02 02:37:09;;;;;;;50.52;32.48;;;;;;;3.39;79.66;99960.55;3062980;76;21129;-67
2021/01/02 02:41:15;;;;;;;47.48;27.37;;;;;;;3.40;79.79;99956.98;3064691;77;21164;-67
2021/01/02 02:45:20;;;;;;;34.75;20.55;;;;;;;3.46;79.77;99951.36;3068223;77;21132;-67
2021/01/02 02:49:25;;;;;;;31.35;18.82;;;;;;;3.46;79.30;99955.30;3068000;77;21152;-68
2021/01/02 02:53:29;;;;;;;28.90;20.88;;;;;;;3.47;79.39;99955.68;3068523;77;21105;-67
2021/01/02 02:57:34;;;;;;;33.48;21.85;;;;;;;3.59;79.13;99957.23;3067976;77;21629;-67
2021/01/02 03:01:38;;;;;;;41.05;24.23;;;;;;;3.59;78.61;99954.61;3068227;77;21109;-67
2021/01/02 03:05:42;;;;;;;40.60;26.45;;;;;;;3.54;78.87;99958.81;3068385;77;21105;-67
2021/01/02 03:09:45;;;;;;;36.88;25.37;;;;;;;3.51;78.42;99955.87;3067907;77;21113;-67
2021/01/02 03:13:48;;;;;;;42.90;28.07;;;;;;;3.35;78.86;99959.03;3068129;77;21164;-67
2021/01/02 03:17:54;;;;;;;47.15;26.52;;;;;;;3.36;79.48;99955.47;3068212;77;21164;-68
2021/01/02 03:21:57;;;;;;;40.45;24.15;;;;;;;3.40;79.31;99961.75;3068014;77;21144;-68
2021/01/02 03:26:04;;;;;;;29.27;20.43;;;;;;;3.43;79.18;99952.86;3068071;77;21156;-67
2021/01/02 03:30:11;;;;;;;31.55;19.30;;;;;;;3.45;78.95;99952.30;3068286;77;21109;-67
2021/01/02 03:34:13;;;;;;;;;;;;;;;3.46;78.75;99952.67;3070907;77;21121;-67
2021/01/02 03:38:17;;;;;;;26.65;16.85;;;;;;;3.51;78.81;99951.93;3068013;76;20182;-67
2021/01/02 03:42:19;;;;;;;21.75;14.78;;;;;;;3.59;78.94;99959.86;3067881;77;21149;-67
2021/01/02 03:46:29;;;;;;;24.23;16.67;;;;;;;3.66;78.91;99955.93;3067886;77;21540;-67
2021/01/02 03:50:33;;;;;;;24.95;14.98;;;;;;;3.75;78.71;99948.83;3067872;77;21583;-67
2021/01/02 03:54:36;;;;;;;24.72;13.95;;;;;;;3.78;78.12;99947.78;3068020;77;21149;-68
2021/01/02 03:58:39;;;;;;;26.42;15.28;;;;;;;3.80;77.89;99944.59;3068206;77;21137;-68
2021/01/02 04:02:42;;;;;;;31.75;16.50;;;;;;;3.86;78.05;99941.13;3040078;77;21604;-67
2021/01/02 04:06:47;;;;;;;28.87;18.77;;;;;;;3.96;78.32;99946.69;3026389;78;21132;-68
2021/01/02 04:10:51;;;;;;;24.12;15.95;;;;;;;4.13;77.82;99948.33;3026503;78;21136;-67
2021/01/02 04:14:54;;;;;;;28.40;19.10;;;;;;;4.18;77.14;99945.88;3026521;78;21543;-67
2021/01/02 04:18:57;;;;;;;27.55;18.70;;;;;;;4.25;77.19;99947.19;3026483;78;21097;-67
2021/01/02 04:23:01;;;;;;;29.80;20.08;;;;;;;4.39;77.42;99954.24;3026592;78;21155;-67
2021/01/02 04:27:06;;;;;;;27.95;18.55;;;;;;;4.47;76.52;99962.98;3026288;78;22154;-67
2021/01/02 04:31:09;;;;;;;39.20;22.58;;;;;;;4.50;76.16;99957.53;3026226;78;21602;-68
2021/01/02 04:35:13;;;;;;;35.85;22.73;;;;;;;4.47;75.81;99948.05;3026518;78;21153;-67
2021/01/02 04:39:19;;;;;;;39.65;26.00;;;;;;;4.43;75.41;99946.55;3026394;77;21157;-67
2021/01/02 04:43:22;;;;;;;43.13;27.45;;;;;;;4.39;75.67;99953.78;3029946;78;21646;-67
2021/01/02 04:47:28;;;;;;;31.15;24.70;;;;;;;4.37;75.55;99957.44;3031150;78;21605;-67
2021/01/02 04:51:34;;;;;;;43.95;27.32;;;;;;;4.40;75.76;99963.37;3031221;78;21137;-67
2021/01/02 04:55:44;;;;;;;45.25;26.50;;;;;;;4.36;75.09;99964.52;3031006;78;21571;-68
2021/01/02 04:59:49;;;;;;;53.28;34.43;;;;;;;4.20;75.62;99972.96;3030667;78;21643;-67
2021/01/02 05:03:52;;;;;;;55.65;33.00;;;;;;;4.20;75.93;99982.17;3030813;78;21136;-67
2021/01/02 05:07:55;;;;;;;62.23;36.60;;;;;;;4.15;75.78;99978.50;3031102;78;21408;-67
2021/01/02 05:11:58;;;;;;;58.58;32.42;;;;;;;4.14;75.93;99982.06;3030917;78;21120;-67
2021/01/02 05:16:34;;;;;;;78.07;45.85;;;;;;;4.09;75.74;99977.55;3030940;78;21117;-67
2021/01/02 05:20:29;;;;;;;74.62;42.83;;;;;;;3.97;75.76;99987.03;3029437;78;21097;-67
2021/01/02 05:24:32;;;;;;;80.22;46.48;;;;;;;3.88;76.15;99990.19;3030881;78;21582;-67
2021/01/02 05:28:35;;;;;;;70.85;41.48;;;;;;;3.79;76.34;99991.12;3031032;78;21139;-68
2021/01/02 05:32:59;;;;;;;68.25;41.88;;;;;;;3.70;76.56;99996.45;3030957;78;21077;-67
2021/01/02 05:37:06;;;;;;;63.75;40.38;;;;;;;3.63;76.90;99998.20;3047680;76;21198;-67
2021/01/02 05:41:09;;;;;;;75.67;41.98;;;;;;;3.61;77.15;100004.02;3050896;77;21152;-67
2021/01/02 05:45:15;;;;;;;65.50;35.92;;;;;;;3.64;77.29;100005.16;3054224;77;21157;-67
2021/01/02 05:49:36;;;;;;;56.63;31.80;;;;;;;3.58;76.71;100007.66;3054346;77;22160;-68
2021/01/02 05:53:39;;;;;;;50.73;30.55;;;;;;;3.32;76.97;100010.45;3042150;77;21082;-67
2021/01/02 05:57:42;;;;;;;49.10;28.47;;;;;;;3.14;77.60;100008.77;3044897;77;21213;-67
2021/01/02 06:01:46;;;;;;;49.60;27.30;;;;;;;2.96;78.18;100014.59;3034169;78;21590;-67
2021/01/02 06:05:58;;;;;;;43.02;25.32;;;;;;;2.82;79.06;100014.48;3020805;78;21500;-67
2021/01/02 06:10:04;;;;;;;33.90;23.62;;;;;;;2.83;79.73;100025.37;3020930;78;21598;-68
2021/01/02 06:14:07;;;;;;;44.83;26.67;;;;;;;2.81;79.48;100032.48;3021189;78;21599;-67
2021/01/02 06:18:10;;;;;;;44.48;24.37;;;;;;;2.75;79.63;100026.22;3009302;78;21310;-67
2021/01/02 06:22:13;;;;;;;38.45;23.42;;;;;;;2.74;79.88;100025.84;2999224;79;21145;-67
2021/01/02 06:26:17;;;;;;;47.65;26.07;;;;;;;2.83;80.18;100038.02;2998886;79;21113;-67
2021/01/02 06:30:21;;;;;;;30.95;21.15;;;;;;;2.85;80.15;100040.58;2998732;79;21588;-68
2021/01/02 06:34:25;;;;;;;36.50;23.65;;;;;;;3.05;80.54;100042.14;2998797;79;21118;-67
2021/01/02 06:38:29;;;;;;;42.38;23.87;;;;;;;3.24;80.10;100038.48;2999010;79;21125;-67
2021/01/02 06:42:32;;;;;;;30.25;19.87;;;;;;;3.35;79.24;100045.31;3000661;79;21129;-67
2021/01/02 06:46:35;;;;;;;36.30;20.43;;;;;;;3.19;78.29;100049.27;3003514;79;21153;-67
2021/01/02 06:50:38;;;;;;;37.65;22.52;;;;;;;3.03;78.53;100056.29;3003943;78;21137;-67
2021/01/02 06:54:41;;;;;;;29.42;20.15;;;;;;;2.90;79.38;100059.56;3003632;79;21103;-67
2021/01/02 06:58:49;;;;;;;37.75;24.87;;;;;;;2.95;79.58;100052.76;3004036;79;21093;-68
2021/01/02 07:02:55;;;;;;;39.58;27.62;;;;;;;3.04;79.65;100054.88;3003657;79;21097;-68
2021/01/02 07:06:58;;;;;;;57.10;29.13;;;;;;;3.12;79.43;100049.20;3003943;78;21125;-67
2021/01/02 07:11:33;;;;;;;42.88;27.27;;;;;;;3.15;79.28;100051.69;3003561;79;21125;-68
2021/01/02 07:15:37;;;;;;;53.17;30.32;;;;;;;3.22;79.35;100051.72;3003692;79;21125;-68
2021/01/02 07:19:46;;;;;;;49.10;30.57;;;;;;;3.34;79.13;100053.27;3003568;79;21141;-68
2021/01/02 07:23:53;;;;;;;55.73;33.05;;;;;;;3.45;79.00;100057.48;3003289;79;21572;-68
2021/01/02 07:27:59;;;;;;;64.00;40.85;;;;;;;3.44;78.22;100054.47;3004031;78;21551;-70
2021/01/02 07:32:10;;;;;;;282.43;174.70;;;;;;;3.41;78.32;100057.28;2976433;79;21154;-69
2021/01/02 07:36:20;;;;;;;89.10;52.53;;;;;;;3.31;78.45;100062.20;3003823;79;21145;-68
2021/01/02 07:40:24;;;;;;;77.92;45.55;;;;;;;3.24;78.25;100073.97;3004116;78;21141;-69
2021/01/02 07:44:28;;;;;;;476.85;258.52;;;;;;;3.13;78.77;100070.16;3000052;79;21129;-68
2021/01/02 07:48:31;;;;;;;314.90;188.57;;;;;;;3.09;79.42;100074.34;2998990;79;21156;-68
2021/01/02 07:52:34;;;;;;;266.60;170.15;;;;;;;3.09;79.45;100075.20;2999241;79;21161;-69
2021/01/02 07:56:42;;;;;;;199.25;127.80;;;;;;;3.13;79.49;100090.32;2999978;79;21129;-69
2021/01/02 08:00:45;;;;;;;65.85;38.55;;;;;;;3.22;79.54;100091.61;2999488;79;21129;-69
2021/01/02 08:04:51;;;;;;;92.65;63.80;;;;;;;3.32;79.48;100091.95;2999289;79;21571;-69
2021/01/02 08:08:58;;;;;;;63.40;42.53;;;;;;;3.45;79.54;100099.56;2999333;79;21149;-68
2021/01/02 08:13:01;;;;;;;78.20;44.93;;;;;;;3.52;79.21;100096.12;2999372;79;21177;-68
2021/01/02 08:17:11;;;;;;;61.55;38.70;;;;;;;3.57;79.13;100101.97;2999279;79;21165;-68
2021/01/02 08:21:14;;;;;;;64.72;41.45;;;;;;;3.55;78.41;100094.19;2999226;79;21133;-68
2021/01/02 08:25:18;;;;;;;79.62;44.48;;;;;;;3.47;78.36;100092.43;2999189;79;22178;-70
2021/01/02 08:29:24;;;;;;;71.47;44.77;;;;;;;3.41;78.34;100107.24;2999216;79;21157;-67
2021/01/02 08:33:28;;;;;;;77.55;46.77;;;;;;;3.37;78.69;100106.55;2999285;79;21395;-68
2021/01/02 08:37:31;;;;;;;83.50;50.98;;;;;;;3.40;78.94;100114.75;2998487;79;21607;-67
2021/01/02 08:41:35;;;;;;;85.62;52.80;;;;;;;3.42;78.94;100120.77;2999095;79;21575;-67
2021/01/02 08:45:39;;;;;;;80.70;52.93;;;;;;;3.40;78.79;100123.95;2999309;79;21125;-67
2021/01/02 08:49:44;;;;;;;80.47;51.48;;;;;;;3.36;79.05;100132.95;2999505;79;21090;-64
2021/01/02 08:53:47;;;;;;;84.75;53.70;;;;;;;3.40;79.18;100143.67;2999199;79;21145;-66
2021/01/02 08:57:56;;;;;;;86.67;52.23;;;;;;;3.50;79.59;100128.24;2999213;79;21153;-68
2021/01/02 09:01:59;;;;;;;90.28;54.95;;;;;;;3.60;79.41;100129.90;3006936;77;21152;-68
2021/01/02 09:06:25;;;;;;;93.22;53.70;;;;;;;3.68;79.06;100121.97;3013904;78;21132;-66
2021/01/02 09:10:42;;;;;;;94.45;52.10;;;;;;;3.79;78.94;100133.20;3013713;79;21135;-70
2021/01/02 09:14:52;;;;;;;171.75;104.75;;;;;;;3.89;78.30;100133.98;3013753;79;21144;-68
2021/01/02 09:18:55;;;;;;;203.37;109.32;;;;;;;3.87;78.28;100148.56;3014111;78;21338;-70
2021/01/02 09:22:58;;;;;;;100.40;61.80;;;;;;;3.83;78.14;100149.20;3013847;79;21156;-69
2021/01/02 09:27:01;;;;;;;396.32;223.05;;;;;;;3.80;78.04;100152.00;3013966;79;21700;-69
2021/01/02 09:31:04;;;;;;;167.90;106.83;;;;;;;3.75;78.30;100153.19;3013406;78;21120;-68
2021/01/02 09:35:09;;;;;;;106.37;62.73;;;;;;;3.78;78.48;100166.16;3018080;78;21140;-69
2021/01/02 09:39:17;;;;;;;147.87;96.72;;;;;;;3.75;78.39;100171.16;3026165;78;21142;-68
2021/01/02 09:43:23;;;;;;;138.20;85.72;;;;;;;3.67;78.62;100175.97;3025192;78;21490;-69
2021/01/02 09:47:26;;;;;;;114.35;76.20;;;;;;;3.66;79.15;100174.27;3025468;78;21597;-69
2021/01/02 09:51:29;;;;;;;90.80;53.17;;;;;;;3.66;79.12;100171.64;3036108;77;21619;-69
2021/01/02 09:55:33;;;;;;;70.32;48.40;;;;;;;3.69;79.56;100174.96;3062440;77;21141;-69
2021/01/02 09:59:36;;;;;;;119.08;68.00;;;;;;;3.79;79.70;100156.02;3062511;77;21140;-69
2021/01/02 10:03:39;;;;;;;74.80;47.40;;;;;;;4.00;79.60;100164.52;3062641;77;21153;-69
2021/01/02 10:07:45;;;;;;;95.90;60.28;;;;;;;4.14;78.64;100164.58;3062301;77;21137;-67
2021/01/02 10:11:48;;;;;;;85.72;58.38;;;;;;;4.27;78.69;100166.49;3062359;77;21149;-68
2021/01/02 10:15:51;;;;;;;78.30;50.50;;;;;;;4.49;78.76;100170.52;3062504;77;21575;-68
2021/01/02 10:19:56;;;;;;;105.37;68.10;;;;;;;4.70;77.80;100155.25;3049691;77;21120;-68
2021/01/02 10:23:59;;;;;;;91.28;65.92;;;;;;;4.82;77.26;100150.57;3043945;78;22142;-69
2021/01/02 10:28:04;;;;;;;78.92;56.77;;;;;;;4.91;76.61;100139.91;3044188;77;21402;-68
2021/01/02 10:32:07;;;;;;;79.87;53.20;;;;;;;4.92;75.88;100140.32;3043991;77;21105;-69
2021/01/02 10:36:11;;;;;;;103.50;60.17;;;;;;;4.84;75.24;100134.64;3044159;77;21626;-68
2021/01/02 10:40:17;;;;;;;73.78;44.90;;;;;;;4.79;75.60;100138.03;3044252;76;21118;-67
2021/01/02 10:44:21;;;;;;;73.37;49.35;;;;;;;4.86;76.16;100136.72;3049060;77;21106;-67
2021/01/02 10:48:26;;;;;;;90.30;60.15;;;;;;;4.89;75.53;100135.69;3054458;77;21145;-66
2021/01/02 10:52:30;;;;;;;99.95;65.12;;;;;;;4.88;75.17;100132.20;3053932;77;21137;-66
2021/01/02 10:56:35;;;;;;;93.85;56.30;;;;;;;4.91;75.51;100137.77;3053879;77;21157;-68
2021/01/02 11:00:39;;;;;;;118.15;74.95;;;;;;;4.94;75.60;100133.16;3053827;77;21576;-67
2021/01/02 11:04:43;;;;;;;67.72;44.83;;;;;;;5.04;75.85;100127.31;3054154;77;21550;-66
2021/01/02 11:08:47;;;;;;;121.15;71.47;;;;;;;5.03;75.21;100122.98;3053577;77;21125;-66
2021/01/02 11:12:50;;;;;;;83.27;52.23;;;;;;;5.03;74.82;100125.62;3053793;77;21157;-66
2021/01/02 11:16:54;;;;;;;148.70;87.78;;;;;;;5.02;74.57;100114.25;3053940;77;21144;-66
2021/01/02 11:20:57;;;;;;;200.65;109.00;;;;;;;5.02;74.48;100127.42;3053422;77;21128;-67
2021/01/02 11:25:02;;;;;;;78.90;50.00;;;;;;;4.98;74.54;100117.98;3053605;77;21168;-67
2021/01/02 11:29:05;;;;;;;58.52;42.43;;;;;;;4.98;74.65;100112.72;3053904;77;21122;-66
2021/01/02 11:33:08;;;;;;;93.00;59.23;;;;;;;5.03;75.10;100105.84;3053498;77;21164;-66
2021/01/02 11:37:14;;;;;;;97.65;66.10;;;;;;;5.09;74.89;100106.77;3053445;76;21126;-67
2021/01/02 11:41:19;;;;;;;137.18;99.60;;;;;;;5.12;74.79;100098.22;3054271;77;21513;-67
2021/01/02 11:45:25;;;;;;;123.20;82.88;;;;;;;5.11;74.67;100096.98;3047122;77;21547;-67
2021/01/02 11:49:35;;;;;;;98.80;66.82;;;;;;;5.03;74.52;100087.39;3043862;78;21125;-67
2021/01/02 11:53:39;;;;;;;79.72;53.58;;;;;;;5.02;75.16;100091.83;3043881;78;21169;-67
2021/01/02 11:57:42;;;;;;;83.42;49.73;;;;;;;5.06;75.11;100090.70;3043710;78;21594;-68
2021/01/02 12:01:49;;;;;;;104.85;64.42;;;;;;;5.08;74.65;100089.27;3043601;78;21230;-67
2021/01/02 12:05:52;;;;;;;99.67;62.80;;;;;;;5.13;75.05;100085.89;3043799;77;21650;-67
2021/01/02 12:09:56;;;;;;;99.62;57.60;;;;;;;5.15;75.33;100082.69;3043370;78;21138;-65
2021/01/02 12:14:00;;;;;;;83.25;54.58;;;;;;;5.19;75.43;100097.36;3044016;77;21102;-66
2021/01/02 12:18:04;;;;;;;76.87;52.90;;;;;;;5.19;75.21;100093.87;3044037;78;21141;-66
2021/01/02 12:22:09;;;;;;;86.32;50.45;;;;;;;5.18;75.08;100087.77;3043611;78;21564;-66
2021/01/02 12:26:12;;;;;;;93.87;56.45;;;;;;;5.09;75.16;100089.18;3043990;78;21125;-66
2021/01/02 12:30:17;;;;;;;79.58;52.73;;;;;;;5.09;75.38;100090.50;3043778;77;21603;-67
2021/01/02 12:34:27;;;;;;;87.75;55.08;;;;;;;5.10;75.61;100099.23;3044006;78;21658;-66
2021/01/02 12:38:31;;;;;;;84.92;53.65;;;;;;;5.15;75.40;100099.34;3044285;76;21137;-67
2021/01/02 12:42:40;;;;;;;80.60;52.80;;;;;;;5.19;75.29;100100.00;3043830;78;21184;-67
2021/01/02 12:46:47;;;;;;;85.65;56.77;;;;;;;5.21;75.11;100106.02;3043944;77;21162;-66
2021/01/02 12:50:56;;;;;;;82.20;56.05;;;;;;;5.29;75.14;100104.23;3044450;78;21434;-66
2021/01/02 12:54:59;;;;;;;88.37;56.98;;;;;;;5.33;74.89;100106.22;2987458;78;21125;-67
2021/01/02 12:59:03;;;;;;;92.37;58.95;;;;;;;5.25;74.59;100105.37;3017343;78;21145;-67
2021/01/02 13:03:06;;;;;;;91.17;61.88;;;;;;;5.23;75.23;100096.22;3019067;77;21149;-67
2021/01/02 13:07:11;;;;;;;107.67;67.00;;;;;;;5.29;74.99;100105.55;3019860;77;21552;-66
2021/01/02 13:11:15;;;;;;;90.42;59.10;;;;;;;5.32;74.90;100119.03;3018477;78;21148;-66
2021/01/02 13:15:18;;;;;;;94.13;58.65;;;;;;;5.31;75.06;100112.06;3017694;78;21670;-67
2021/01/02 13:19:24;;;;;;;115.55;78.22;;;;;;;5.34;74.96;100106.59;3019481;77;21097;-63
2021/01/02 13:23:30;;;;;;;81.12;54.25;;;;;;;5.35;74.93;100115.70;3018178;77;21156;-66
2021/01/02 13:27:36;;;;;;;87.50;60.83;;;;;;;5.28;74.28;100106.00;3054898;77;21430;-66
2021/01/02 13:31:44;;;;;;;92.78;70.75;;;;;;;5.17;74.42;100113.76;3031650;77;21140;-64
2021/01/02 13:35:49;;;;;;;78.02;46.00;;;;;;;5.11;74.56;100114.98;3026664;78;21144;-65
2021/01/02 13:39:52;;;;;;;75.08;49.48;;;;;;;5.12;74.86;100111.89;3026289;77;21153;-68
2021/01/02 13:43:56;;;;;;;115.45;71.02;;;;;;;5.18;74.78;100115.45;3038327;77;21165;-68
2021/01/02 13:47:59;;;;;;;128.97;79.30;;;;;;;5.22;74.93;100123.55;3045163;78;21153;-67
2021/01/02 13:52:05;;;;;;;100.18;64.42;;;;;;;5.28;75.02;100132.38;3045057;77;21122;-67
2021/01/02 13:56:13;;;;;;;110.00;68.92;;;;;;;5.33;74.61;100128.63;3041529;77;21138;-68
2021/01/02 14:00:17;;;;;;;119.05;73.42;;;;;;;5.35;74.65;100132.02;3043858;78;21623;-66
2021/01/02 14:04:20;;;;;;;115.55;70.35;;;;;;;5.34;74.53;100130.33;3044484;77;21121;-68
2021/01/02 14:08:24;;;;;;;79.60;52.13;;;;;;;5.33;74.75;100133.91;3039124;77;21145;-68
2021/01/02 14:12:27;;;;;;;93.58;62.50;;;;;;;5.27;75.01;100133.33;3020244;78;21547;-67
2021/01/02 14:16:31;;;;;;;113.10;68.42;;;;;;;5.20;75.06;100137.30;2998869;77;21566;-67
2021/01/02 14:20:34;;;;;;;143.60;87.62;;;;;;;5.21;75.59;100140.31;3021198;78;21260;-66
2021/01/02 14:24:39;;;;;;;156.87;96.17;;;;;;;5.24;75.28;100137.48;3021296;78;21121;-66
2021/01/02 14:28:44;;;;;;;98.07;58.75;;;;;;;5.25;75.27;100136.53;3021356;78;21100;-67
2021/01/02 14:32:47;;;;;;;82.42;57.88;;;;;;;5.26;75.01;100140.86;3021398;78;21096;-67
2021/01/02 14:36:57;;;;;;;86.57;56.50;;;;;;;5.28;74.94;100140.78;3017747;78;21129;-67
2021/01/02 14:41:00;;;;;;;89.70;59.05;;;;;;;5.25;74.68;100139.66;3018146;77;21152;-67
2021/01/02 14:45:05;;;;;;;88.12;62.78;;;;;;;5.27;75.02;100142.56;3016288;78;21127;-68
2021/01/02 14:49:09;;;;;;;92.80;62.23;;;;;;;5.32;74.82;100149.36;3030691;78;21156;-66
2021/01/02 14:53:15;;;;;;;105.37;61.48;;;;;;;5.32;74.77;100144.09;3047352;77;21548;-66
2021/01/02 14:57:18;;;;;;;96.97;60.25;;;;;;;5.31;74.54;100145.03;3054801;77;21133;-68
2021/01/02 15:01:23;;;;;;;185.28;119.53;;;;;;;5.28;74.67;100145.57;3045582;77;21614;-68
2021/01/02 15:05:27;;;;;;;202.82;125.05;;;;;;;5.24;74.56;100145.87;3027174;77;21137;-67
2021/01/02 15:09:32;;;;;;;127.82;75.28;;;;;;;5.18;74.32;100144.46;3032284;77;21116;-67
2021/01/02 15:13:35;;;;;;;84.35;55.78;;;;;;;5.10;74.35;100144.06;3030168;77;22014;-67
2021/01/02 15:17:41;;;;;;;109.72;67.40;;;;;;;5.03;74.49;100153.30;3032347;77;21121;-67
2021/01/02 15:21:46;;;;;;;88.75;50.12;;;;;;;4.99;74.62;100145.59;3030322;77;21092;-67
2021/01/02 15:25:51;;;;;;;93.58;53.68;;;;;;;4.94;74.67;100142.84;3020433;77;21164;-68
2021/01/02 15:29:54;;;;;;;111.88;63.65;;;;;;;4.90;74.93;100146.13;3030607;77;21528;-67
2021/01/02 15:33:58;;;;;;;104.87;59.20;;;;;;;4.93;74.97;100152.56;3031565;77;21160;-67
2021/01/02 15:38:03;;;;;;;115.05;66.57;;;;;;;4.91;74.86;100145.19;3025016;78;21401;-67
2021/01/02 15:42:07;;;;;;;114.32;69.45;;;;;;;4.85;74.86;100150.84;3030767;77;21136;-66
2021/01/02 15:46:10;;;;;;;103.75;67.55;;;;;;;4.83;75.03;100156.67;3024889;78;21601;-67
2021/01/02 15:50:13;;;;;;;122.05;72.42;;;;;;;4.86;75.22;100164.39;3017750;78;21144;-68
2021/01/02 15:54:21;;;;;;;84.77;55.05;;;;;;;4.90;75.13;100156.67;3017000;78;21665;-68
2021/01/02 15:58:25;;;;;;;59.80;39.38;;;;;;;4.91;74.85;100158.85;3016781;78;21583;-67
2021/01/02 16:02:28;;;;;;;106.40;65.70;;;;;;;4.87;74.99;100158.17;3017191;78;21125;-66
2021/01/02 16:06:32;;;;;;;135.60;83.90;;;;;;;4.86;75.03;100163.07;3017052;78;21111;-66
2021/01/02 16:10:36;;;;;;;327.10;236.18;;;;;;;4.82;75.32;100162.43;2977736;78;21137;-66
2021/01/02 16:14:42;;;;;;;117.15;79.20;;;;;;;4.84;75.51;100175.50;2988714;78;21704;-68
2021/01/02 16:18:45;;;;;;;161.88;102.95;;;;;;;4.85;75.53;100181.14;3001359;79;21588;-67
2021/01/02 16:22:49;;;;;;;373.40;249.20;;;;;;;4.85;75.48;100182.01;3001410;79;21138;-68
2021/01/02 16:26:53;;;;;;;117.77;74.00;;;;;;;4.84;75.54;100173.73;3001746;78;21515;-67
2021/01/02 16:30:59;;;;;;;108.97;70.17;;;;;;;4.85;75.57;100168.83;3001722;78;21142;-68
2021/01/02 16:35:05;;;;;;;123.85;76.77;;;;;;;4.92;75.78;100164.05;3002204;79;21145;-68
2021/01/02 16:39:11;;;;;;;118.03;69.03;;;;;;;4.97;75.34;100163.29;3005268;77;21097;-68
2021/01/02 16:43:14;;;;;;;107.90;70.70;;;;;;;4.87;74.99;100162.13;3002690;78;21124;-66
2021/01/02 16:47:23;;;;;;;134.10;79.17;;;;;;;4.83;75.21;100154.03;3017452;77;22182;-68
2021/01/02 16:51:33;;;;;;;100.95;66.37;;;;;;;4.80;75.33;100150.27;3014944;77;21113;-68
2021/01/02 16:55:37;;;;;;;99.77;66.25;;;;;;;4.76;75.36;100146.96;3016196;77;21642;-67
2021/01/02 16:59:43;;;;;;;121.17;73.52;;;;;;;4.70;75.36;100136.31;3016442;77;21524;-67
2021/01/02 17:03:53;;;;;;;108.12;66.07;;;;;;;4.68;75.69;100142.15;3015677;78;21585;-68
2021/01/02 17:07:57;;;;;;;105.32;69.42;;;;;;;4.63;75.61;100146.85;3015469;77;21153;-66
2021/01/02 17:12:05;;;;;;;117.40;68.90;;;;;;;4.57;76.02;100149.86;3016848;78;21125;-66
2021/01/02 17:16:08;;;;;;;107.83;67.50;;;;;;;4.56;76.07;100150.80;2999433;79;21130;-66
2021/01/02 17:20:12;;;;;;;112.45;71.72;;;;;;;4.53;76.49;100156.25;3000005;79;21585;-64
2021/01/02 17:24:16;;;;;;;115.90;71.65;;;;;;;4.60;76.67;100154.08;2915296;81;21175;-63
2021/01/02 17:28:19;;;;;;;97.08;60.48;;;;;;;4.66;76.65;100153.25;2914642;79;21370;-64
2021/01/02 17:32:21;;;;;;;105.87;68.35;;;;;;;4.70;76.30;100148.17;2946472;79;21151;-64
2021/01/02 17:36:25;;;;;;;124.58;70.72;;;;;;;4.70;76.28;100152.13;2929925;80;21143;-64
2021/01/02 17:40:29;;;;;;;130.85;80.77;;;;;;;4.75;76.20;100152.34;2947536;80;21167;-73
2021/01/02 17:44:33;;;;;;;131.65;84.20;;;;;;;4.78;76.25;100152.16;2949252;80;21179;-71
2021/01/02 17:48:37;;;;;;;110.80;68.85;;;;;;;4.77;76.07;100152.61;2964944;79;21134;-73
2021/01/02 17:52:40;;;;;;;135.85;85.20;;;;;;;4.77;76.10;100162.32;2964328;79;21166;-74
2021/01/02 17:56:43;;;;;;;152.90;92.25;;;;;;;4.75;76.30;100156.30;2917948;80;21734;-71
2021/01/02 18:00:47;;;;;;;88.35;57.93;;;;;;;4.75;76.20;100154.98;2921597;81;21109;-70
2021/01/02 18:04:50;;;;;;;172.13;102.20;;;;;;;4.74;76.22;100151.48;2920056;80;21153;-70
2021/01/02 18:08:55;;;;;;;135.28;85.22;;;;;;;4.79;76.26;100149.41;2920690;81;21109;-70
2021/01/02 18:12:57;;;;;;;124.30;82.42;;;;;;;4.82;76.18;100149.25;2921781;81;21168;-70
2021/01/02 18:17:03;;;;;;;135.70;89.05;;;;;;;4.86;76.10;100151.21;2919902;80;21117;-71
2021/01/02 18:21:10;;;;;;;109.75;72.87;;;;;;;4.93;76.03;100146.42;2919385;81;21160;-71
2021/01/02 18:25:14;;;;;;;136.22;79.87;;;;;;;5.00;75.86;100153.01;2921583;81;21153;-70
2021/01/02 18:29:20;;;;;;;295.90;167.25;;;;;;;5.05;75.88;100151.42;2964606;79;21548;-72
2021/01/02 18:33:26;;;;;;;118.15;77.15;;;;;;;5.08;75.72;100156.05;2909763;80;21154;-71
2021/01/02 18:37:31;;;;;;;113.10;73.80;;;;;;;5.11;75.62;100153.67;2909898;80;21142;-73
2021/01/02 18:41:38;;;;;;;134.40;77.42;;;;;;;5.10;75.65;100150.66;2909308;81;21162;-71
2021/01/02 18:45:41;;;;;;;102.53;63.00;;;;;;;5.09;75.13;100139.73;2909050;81;21175;-71
2021/01/02 18:49:44;;;;;;;128.87;85.87;;;;;;;4.99;75.25;100140.31;2959384;79;21510;-72
2021/01/02 18:53:47;;;;;;;284.77;158.25;;;;;;;5.01;75.84;100152.06;2960301;79;21590;-72